Tropical Cyclones
[Index]
Main Index Home Page Stock Weather Photos Extreme Storms Discussion Storm News and Storm Chasing Reports Tropical Cyclones / Hurricanes / Typhoons Weather Data and Links Wild Fires / Bushfires Weather Observation Techniques Weather Picture Catalogue Tornado Pictures and Reports Stock Video Footage and DVDs for sale
Season 1987-1988 Tropical Cyclone CHARLIE Track Map
Season 1987-1988 Summaries: [BoM-AU] [JTWC-AU] [JTWC-SIO] [JTWC-SPAC] [JTWC-SH]
<<- Previous TC | BoM 1987-1988 Season | Next TC ->>

click for intensity scale information  Lat/long Grid: Show Hide

 Date Labels: Show Hide

Bureau of Meteorology Tropical Cyclone Data

Name: CHARLIE
Number: 705 / 198788_04

21 Feb 1988 00:00 UTC to 01 Mar 1988 18:00 UTC

    date/time    lat    long    hPa   cat  kts
1988-02-21 00   12.8   159.1    997         30          
1988-02-21 06   14.0   158.4    997         30          
1988-02-21 12   14.2   158.1    998         30          
1988-02-21 18   14.3   157.9    995    1    30          
1988-02-22 00   14.4   157.6    995    1    30          
1988-02-22 06   14.6   156.9    995    1    30          
1988-02-22 12   14.6   156.5    993    1    30          
1988-02-22 18   14.6   156.2    992    1    40          
1988-02-23 00   14.5   155.7    990    1    40          
1988-02-23 06   14.5   155.2    989    1    45          
1988-02-23 12   14.7   154.7    988    1    45          
1988-02-23 18   14.9   154.6    986    1    50          
1988-02-24 00   15.2   154.5    985    2    50          
1988-02-24 06   15.5   154.5    987    1    50          
1988-02-24 12   16.2   155.1    992    1    40          
1988-02-24 18   16.9   154.9    993    1    40          
1988-02-25 00   17.4   154.6    993    1    40          
1988-02-25 06   17.6   154.1    995    1    35          
1988-02-25 12   17.5   153.7    996         35          
1988-02-25 18   17.5   153.3    996         35          
1988-02-26 00   17.5   152.8    995    1    35          
1988-02-26 06   17.2   152.3    992    1    40          
1988-02-26 12   16.9   152.2    995    1    40          
1988-02-26 18   16.8   152.0    995    1    40          
1988-02-27 00   17.0   152.0    996         40          
1988-02-27 06   17.5   151.7    994    1    40          
1988-02-27 12   17.8   150.9    992    1    40          
1988-02-27 18   18.0   150.0    990    1    45          
1988-02-28 00   18.1   149.0    990    1    45          
1988-02-28 06   18.2   148.4    985    2    50          
1988-02-28 12   18.4   148.0    985    2    50          
1988-02-28 18   18.9   147.7    985    2    50          
1988-02-29 00   19.3   147.6    985    2    60          
1988-02-29 06   19.4   147.3    982    2    70          
1988-02-29 12   19.6   147.6    972    2    80          
1988-02-29 16   19.7   147.7    972    2    80          
1988-02-29 18   19.8   147.7    980    2    80          
1988-03-01 00   20.4   147.9    993    1    50          
1988-03-01 06   21.0   147.6    996         30          
1988-03-01 12   20.9   147.5    999         20          
1988-03-01 18   20.9   147.5   1000         20          
Winds are 10-min average.

Tropical cyclone tracks developed by Michael Bath using data from the Bureau of Meteorology and Google Maps.


[Australian Severe Weather index] [Copyright Notice] [Email Contacts] [Search This Site] [Privacy Policy]
Document: tropical_cyclone_charlie.htm Updated: 4 April 2018